createdAt,value
2018-07-25T00:02:24.548Z,22.22
2018-07-25T00:07:19.117Z,22.03
2018-07-25T00:12:13.698Z,21.91
2018-07-25T00:17:08.253Z,21.92
2018-07-25T00:22:02.807Z,22.07
2018-07-25T00:26:57.382Z,21.95
2018-07-25T00:31:51.958Z,21.79
2018-07-25T00:36:46.476Z,21.64
2018-07-25T00:41:41.006Z,21.77
2018-07-25T00:46:35.518Z,21.64
2018-07-25T00:51:30.525Z,21.51
2018-07-25T00:56:25.125Z,21.44
2018-07-25T01:01:19.751Z,21.46
2018-07-25T01:06:14.273Z,21.32
2018-07-25T01:11:08.860Z,21.36
2018-07-25T01:16:04.416Z,21.55
2018-07-25T01:20:59.008Z,21.33
2018-07-25T01:25:53.230Z,21.30
2018-07-25T01:30:47.818Z,21.13
2018-07-25T01:35:42.055Z,21.01
2018-07-25T01:40:36.607Z,20.89
2018-07-25T01:45:31.117Z,20.98
2018-07-25T01:50:25.685Z,20.98
2018-07-25T01:55:20.211Z,20.98
2018-07-25T02:00:14.781Z,21.18
2018-07-25T02:05:09.324Z,20.98
2018-07-25T02:10:03.929Z,20.74
2018-07-25T02:14:58.538Z,20.62
2018-07-25T02:19:53.142Z,20.50
2018-07-25T02:24:47.689Z,20.43
2018-07-25T02:29:42.236Z,20.50
2018-07-25T02:34:36.787Z,20.49
2018-07-25T02:39:31.044Z,20.35
2018-07-25T02:44:25.585Z,20.33
2018-07-25T02:49:20.202Z,20.55
2018-07-25T02:54:14.774Z,20.33
2018-07-25T02:59:09.339Z,20.23
2018-07-25T03:04:03.917Z,20.23
2018-07-25T03:08:58.536Z,20.05
2018-07-25T03:13:53.042Z,19.92
2018-07-25T03:18:47.591Z,19.86
2018-07-25T03:23:42.137Z,19.88
2018-07-25T03:28:36.743Z,20.04
2018-07-25T03:33:31.321Z,20.11
2018-07-25T03:38:26.489Z,20.48
2018-07-25T03:43:21.130Z,20.72
2018-07-25T03:48:15.714Z,20.21
2018-07-25T03:53:10.311Z,19.93
2018-07-25T03:58:04.965Z,19.70
2018-07-25T04:02:59.546Z,19.69
2018-07-25T04:07:54.293Z,19.63
2018-07-25T04:12:49.255Z,19.73
2018-07-25T04:17:45.915Z,20.33
2018-07-25T04:22:40.544Z,21.21
2018-07-25T04:27:35.666Z,22.32
2018-07-25T04:32:30.244Z,23.13
2018-07-25T04:37:24.981Z,23.76
2018-07-25T04:42:20.213Z,24.44
2018-07-25T04:47:14.740Z,25.31
2018-07-25T04:52:09.334Z,25.91
2018-07-25T04:57:03.921Z,26.79
2018-07-25T05:01:58.513Z,28.02
2018-07-25T05:06:53.072Z,28.48
2018-07-25T05:11:47.590Z,28.36
2018-07-25T05:16:42.162Z,28.64
2018-07-25T05:21:36.743Z,28.80
2018-07-25T05:26:31.261Z,29.39
2018-07-25T05:31:25.686Z,30.05
2018-07-25T05:36:20.369Z,29.66
2018-07-25T05:41:14.785Z,29.97
2018-07-25T05:46:09.297Z,30.67
2018-07-25T05:51:03.785Z,31.10
2018-07-25T05:55:58.310Z,31.39
2018-07-25T06:00:52.763Z,31.28
2018-07-25T06:05:47.278Z,31.69
2018-07-25T06:10:41.368Z,32.41
2018-07-25T06:15:35.829Z,32.38
2018-07-25T06:20:30.429Z,32.90
2018-07-25T06:25:36.494Z,32.80
2018-07-25T06:30:30.976Z,32.54
2018-07-25T06:35:25.925Z,31.63
2018-07-25T06:40:20.110Z,29.62
2018-07-25T06:45:14.577Z,29.49
2018-07-25T06:50:12.145Z,28.60
2018-07-25T06:55:06.753Z,28.35
2018-07-25T07:00:01.312Z,28.52
2018-07-25T07:05:00.149Z,28.43
2018-07-25T07:09:54.565Z,29.03
2018-07-25T07:14:49.085Z,28.34
2018-07-25T07:19:43.677Z,29.01
2018-07-25T07:24:38.504Z,28.75
2018-07-25T07:29:33.305Z,28.63
2018-07-25T07:34:33.843Z,28.34
2018-07-25T07:39:28.415Z,27.89
2018-07-25T07:44:39.925Z,27.72
2018-07-25T07:49:36.178Z,28.43
2018-07-25T07:54:31.641Z,28.93
2018-07-25T07:59:26.215Z,29.04
2018-07-25T08:04:20.800Z,28.41
2018-07-25T08:09:15.979Z,28.80
2018-07-25T08:14:17.427Z,29.03
2018-07-25T08:19:13.033Z,29.23
2018-07-25T08:24:07.541Z,29.25
2018-07-25T08:29:02.102Z,29.32
2018-07-25T08:33:56.685Z,29.14
2018-07-25T08:38:51.324Z,29.44
2018-07-25T08:43:45.818Z,29.88
2018-07-25T08:48:40.504Z,30.11
2018-07-25T08:53:35.417Z,30.30
2018-07-25T08:58:30.181Z,30.03
2018-07-25T09:03:33.702Z,29.93
2018-07-25T09:08:29.107Z,30.00
2018-07-25T09:13:23.808Z,30.11
2018-07-25T09:18:18.325Z,29.27
2018-07-25T09:23:12.775Z,28.86
2018-07-25T09:28:07.849Z,29.50
2018-07-25T09:33:03.417Z,30.15
2018-07-25T09:37:58.074Z,30.65
2018-07-25T09:42:53.961Z,30.99
2018-07-25T09:47:49.399Z,31.25
2018-07-25T09:52:47.223Z,31.23
2018-07-25T09:57:42.018Z,31.44
2018-07-25T10:02:36.697Z,31.06
2018-07-25T10:07:31.231Z,31.13
2018-07-25T10:12:26.417Z,30.66
2018-07-25T10:17:21.734Z,31.25
2018-07-25T10:22:15.929Z,31.50
2018-07-25T10:27:10.965Z,30.82
2018-07-25T10:32:05.425Z,31.56
2018-07-25T10:36:59.620Z,31.65
2018-07-25T10:41:54.150Z,31.18
2018-07-25T10:46:48.751Z,31.57
2018-07-25T10:51:43.290Z,31.37
2018-07-25T10:56:38.030Z,31.56
2018-07-25T11:01:33.569Z,31.85
2018-07-25T11:06:28.289Z,31.82
2018-07-25T11:11:23.125Z,31.76
2018-07-25T11:16:18.090Z,32.20
2018-07-25T11:21:12.591Z,32.21
2018-07-25T11:26:07.438Z,32.07
2018-07-25T11:31:02.156Z,32.12
2018-07-25T11:35:57.184Z,32.22
2018-07-25T11:40:52.233Z,32.41
2018-07-25T11:45:50.440Z,32.62
2018-07-25T11:50:48.615Z,32.82
2018-07-25T11:55:46.818Z,32.40
2018-07-25T12:00:46.087Z,32.71
2018-07-25T12:05:49.499Z,32.42
2018-07-25T12:10:47.542Z,31.99
2018-07-25T12:15:42.191Z,32.66
2018-07-25T12:20:39.798Z,32.54
2018-07-25T12:25:34.507Z,32.59
2018-07-25T12:30:31.723Z,32.68
2018-07-25T12:35:26.625Z,33.03
2018-07-25T12:40:21.452Z,33.05
2018-07-25T12:45:19.815Z,33.31
2018-07-25T12:50:15.631Z,33.07
2018-07-25T12:55:11.250Z,33.35
2018-07-25T13:00:08.438Z,33.15
2018-07-25T13:05:03.266Z,33.38
2018-07-25T13:09:58.443Z,33.43
2018-07-25T13:14:53.574Z,33.06
2018-07-25T13:19:48.507Z,33.26
2018-07-25T13:24:44.793Z,33.35
2018-07-25T13:29:39.498Z,33.85
2018-07-25T13:34:34.189Z,34.14
2018-07-25T13:39:28.981Z,34.17
2018-07-25T13:44:24.063Z,34.00
2018-07-25T13:49:19.175Z,34.19
2018-07-25T13:54:27.271Z,34.18
2018-07-25T13:59:23.432Z,34.02
2018-07-25T14:04:19.631Z,34.38
2018-07-25T14:09:16.007Z,34.31
2018-07-25T14:14:11.352Z,34.11
2018-07-25T14:19:06.459Z,33.99
2018-07-25T14:24:01.581Z,33.63
2018-07-25T14:28:56.634Z,34.27
2018-07-25T14:33:51.241Z,33.78
2018-07-25T14:38:45.952Z,32.90
2018-07-25T14:43:40.692Z,31.52
2018-07-25T14:48:35.805Z,31.13
2018-07-25T14:53:30.927Z,30.84
2018-07-25T14:58:25.686Z,30.79
2018-07-25T15:03:20.313Z,30.80
2018-07-25T15:08:15.861Z,31.06
2018-07-25T15:13:11.095Z,31.04
2018-07-25T15:18:08.890Z,31.72
2018-07-25T15:23:03.552Z,31.85
2018-07-25T15:27:58.347Z,32.15
2018-07-25T15:32:53.077Z,32.20
2018-07-25T15:37:47.801Z,32.07
2018-07-25T15:42:42.630Z,31.98
2018-07-25T15:47:37.286Z,31.94
2018-07-25T15:52:31.911Z,31.97
2018-07-25T15:57:26.688Z,32.12
2018-07-25T16:02:21.282Z,31.94
2018-07-25T16:07:15.922Z,31.93
2018-07-25T16:12:11.041Z,31.50
2018-07-25T16:17:05.803Z,31.62
2018-07-25T16:22:01.058Z,31.44
2018-07-25T16:26:55.654Z,31.37
2018-07-25T16:31:50.269Z,31.32
2018-07-25T16:36:45.246Z,31.29
2018-07-25T16:41:40.277Z,31.27
2018-07-25T16:46:35.124Z,31.12
2018-07-25T16:51:29.710Z,30.82
2018-07-25T16:56:24.309Z,31.18
2018-07-25T17:01:18.960Z,31.06
2018-07-25T17:06:13.803Z,30.86
2018-07-25T17:11:08.671Z,30.76
2018-07-25T17:16:03.313Z,30.57
2018-07-25T17:20:57.878Z,30.54
2018-07-25T17:25:52.514Z,30.55
2018-07-25T17:30:47.526Z,30.50
2018-07-25T17:35:42.459Z,30.67
2018-07-25T17:40:36.796Z,30.69
2018-07-25T17:45:31.292Z,30.56
2018-07-25T17:50:25.885Z,30.59
2018-07-25T17:55:20.565Z,30.60
2018-07-25T18:00:15.156Z,30.36
2018-07-25T18:05:10.518Z,30.26
2018-07-25T18:10:05.626Z,30.18
2018-07-25T18:14:59.901Z,29.97
2018-07-25T18:19:54.554Z,29.95
2018-07-25T18:24:49.294Z,29.92
2018-07-25T18:29:43.900Z,29.74
2018-07-25T18:34:38.509Z,29.53
2018-07-25T18:39:33.114Z,29.54
2018-07-25T18:44:27.715Z,29.31
2018-07-25T18:49:22.360Z,29.22
2018-07-25T18:54:16.948Z,28.98
2018-07-25T18:59:11.684Z,28.91
2018-07-25T19:04:06.494Z,28.70
2018-07-25T19:09:01.114Z,28.54
2018-07-25T19:14:00.975Z,28.47
2018-07-25T19:18:55.533Z,28.34
2018-07-25T19:23:50.224Z,28.19
2018-07-25T19:28:44.721Z,28.20
2018-07-25T19:33:39.260Z,28.08
2018-07-25T19:38:33.849Z,27.91
2018-07-25T19:43:28.488Z,27.70
2018-07-25T19:48:23.051Z,27.60
2018-07-25T19:53:17.651Z,27.42
2018-07-25T19:58:12.292Z,27.28
2018-07-25T20:03:07.150Z,27.24
2018-07-25T20:08:02.246Z,27.14
2018-07-25T20:12:57.038Z,26.99
2018-07-25T20:17:51.662Z,26.76
2018-07-25T20:22:46.302Z,26.56
2018-07-25T20:27:40.851Z,26.41
2018-07-25T20:32:35.485Z,26.28
2018-07-25T20:37:30.104Z,26.01
2018-07-25T20:42:25.122Z,25.81
2018-07-25T20:47:19.727Z,25.61
2018-07-25T20:52:14.438Z,25.42
2018-07-25T20:57:09.231Z,25.31
2018-07-25T21:02:03.837Z,25.21
2018-07-25T21:06:58.409Z,25.08
2018-07-25T21:11:53.155Z,24.98
2018-07-25T21:16:47.477Z,24.86
2018-07-25T21:21:42.287Z,24.78
2018-07-25T21:26:36.872Z,24.67
2018-07-25T21:31:31.445Z,24.50
2018-07-25T21:36:26.187Z,24.27
2018-07-25T21:41:20.890Z,24.28
2018-07-25T21:46:15.450Z,24.22
2018-07-25T21:51:10.002Z,24.15
2018-07-25T21:56:04.261Z,24.07
2018-07-25T22:01:00.715Z,24.13
2018-07-25T22:05:55.297Z,23.94
2018-07-25T22:10:49.868Z,23.90
2018-07-25T22:15:44.097Z,23.83
2018-07-25T22:20:38.665Z,23.79
2018-07-25T22:25:32.928Z,23.87
2018-07-25T22:30:27.541Z,23.69
2018-07-25T22:35:22.138Z,23.52
2018-07-25T22:40:16.747Z,23.45
2018-07-25T22:45:11.370Z,23.44
2018-07-25T22:50:05.987Z,23.33
2018-07-25T22:55:00.623Z,23.19
2018-07-25T22:59:55.222Z,23.09
2018-07-25T23:04:49.830Z,23.03
2018-07-25T23:09:44.470Z,23.04
2018-07-25T23:14:39.056Z,23.02
2018-07-25T23:19:33.575Z,22.92
2018-07-25T23:24:28.122Z,22.82
2018-07-25T23:29:22.715Z,22.73
2018-07-25T23:34:17.522Z,22.61
2018-07-25T23:39:12.701Z,22.52
2018-07-25T23:44:07.380Z,22.43
2018-07-25T23:49:01.946Z,22.39
2018-07-25T23:53:56.534Z,22.37
2018-07-25T23:58:51.096Z,22.29
